Time;durP1;ratioP1;P1;durP2;ratioP2;P2;SDS_P1;SDS_P2;PMS_P1;PMS_P2;Temp;Humidity;BMP_temperature;BMP_pressure;BME280_temperature;BME280_humidity;BME280_pressure;Samples;Min_cycle;Max_cycle;Signal;HPM_P1;HPM_P2
2022/03/20 00:00:36;;;;;;;8.20;4.07;;;;;;;9.27;43.63;103237.94;5027410;28;20037;-64
2022/03/20 00:03:09;;;;;;;6.65;3.80;;;;;;;9.28;43.35;103239.69;5030096;28;20045;-64
2022/03/20 00:05:38;;;;;;;12.35;4.82;;;;;;;9.24;43.75;103236.44;5029092;28;20052;-64
2022/03/20 00:08:08;;;;;;;10.30;4.30;;;;;;;9.20;43.13;103226.75;5030721;28;20377;-63
2022/03/20 00:10:34;;;;;;;9.32;4.60;;;;;;;9.21;43.53;103217.41;5031184;28;20029;-63
2022/03/20 00:12:59;;;;;;;9.93;4.68;;;;;;;9.16;43.50;103222.66;5029056;28;20037;-63
2022/03/20 00:15:24;;;;;;;9.40;4.47;;;;;;;9.14;43.89;103221.94;5031504;28;20033;-64
2022/03/20 00:17:50;;;;;;;10.35;5.43;;;;;;;9.11;44.22;103211.22;5023193;28;20034;-64
2022/03/20 00:20:16;;;;;;;8.85;4.97;;;;;;;9.02;44.23;103207.69;5031448;28;20026;-64
2022/03/20 00:22:41;;;;;;;9.13;5.30;;;;;;;9.05;44.17;103212.84;5031576;28;20845;-64
2022/03/20 00:25:07;;;;;;;8.95;5.47;;;;;;;9.05;43.94;103204.53;5030550;28;20049;-64
2022/03/20 00:27:33;;;;;;;9.10;5.22;;;;;;;9.09;44.50;103205.03;5031108;28;20385;-64
2022/03/20 00:29:58;;;;;;;11.65;5.53;;;;;;;9.04;43.96;103200.06;5019856;28;20037;-64
2022/03/20 00:32:23;;;;;;;12.57;6.10;;;;;;;9.04;44.05;103200.06;5029378;28;20508;-63
2022/03/20 00:34:49;;;;;;;8.88;5.57;;;;;;;9.01;44.27;103185.72;5028774;28;20025;-64
2022/03/20 00:37:14;;;;;;;9.30;6.25;;;;;;;8.92;44.77;103178.50;5028585;28;20536;-63
2022/03/20 00:39:39;;;;;;;11.35;5.90;;;;;;;8.97;44.32;103171.38;5031623;28;20041;-64
2022/03/20 00:42:05;;;;;;;13.63;5.93;;;;;;;8.91;43.98;103166.56;5035884;28;20521;-63
2022/03/20 00:44:31;;;;;;;10.20;6.07;;;;;;;8.87;44.41;103161.59;5036761;28;20065;-64
2022/03/20 00:46:57;;;;;;;9.70;6.32;;;;;;;8.93;44.80;103164.47;5033447;28;20376;-64
2022/03/20 00:49:22;;;;;;;12.23;6.88;;;;;;;8.88;45.04;103150.31;5028629;28;20047;-64
2022/03/20 00:51:47;;;;;;;10.30;6.07;;;;;;;8.90;44.40;103156.53;5027090;28;20033;-64
2022/03/20 00:54:12;;;;;;;9.13;6.07;;;;;;;8.92;44.12;103151.69;5030450;28;20108;-64
2022/03/20 00:56:40;;;;;;;13.27;6.63;;;;;;;8.92;44.26;103148.91;5029874;28;20428;-64
2022/03/20 00:59:06;;;;;;;11.68;6.47;;;;;;;8.84;44.78;103148.94;5030179;28;20034;-64
2022/03/20 01:01:32;;;;;;;15.27;6.82;;;;;;;8.83;44.86;103141.69;5030179;28;20095;-64
2022/03/20 01:03:58;;;;;;;11.48;6.85;;;;;;;8.81;45.03;103144.66;5030709;28;20037;-64
2022/03/20 01:06:44;;;;;;;10.98;7.10;;;;;;;8.78;44.80;103139.50;5031564;28;20045;-64
2022/03/20 01:09:09;;;;;;;13.77;7.85;;;;;;;8.76;44.50;103126.88;5030735;28;20064;-63
2022/03/20 01:11:35;;;;;;;12.75;7.18;;;;;;;8.74;44.63;103126.22;5029413;28;20068;-63
2022/03/20 01:14:00;;;;;;;10.48;7.43;;;;;;;8.73;44.58;103130.03;5032095;28;20099;-64
2022/03/20 01:16:28;;;;;;;10.40;7.32;;;;;;;8.72;45.17;103128.28;5029755;28;20056;-63
2022/03/20 01:18:53;;;;;;;11.07;7.43;;;;;;;8.64;44.92;103123.69;5030739;28;20026;-63
2022/03/20 01:21:18;;;;;;;13.57;8.20;;;;;;;8.63;45.09;103124.72;5022922;28;20133;-64
2022/03/20 01:23:44;;;;;;;12.23;7.75;;;;;;;8.66;45.07;103123.50;5026585;28;20029;-64
2022/03/20 01:26:10;;;;;;;10.45;7.38;;;;;;;8.58;45.03;103118.91;5030987;28;20029;-64
2022/03/20 01:28:36;;;;;;;12.98;7.72;;;;;;;8.61;45.52;103113.00;5026370;28;20033;-63
2022/03/20 01:31:01;;;;;;;13.98;8.75;;;;;;;8.56;45.68;103104.38;5026540;28;20385;-63
2022/03/20 01:33:26;;;;;;;15.00;8.77;;;;;;;8.49;45.75;103101.50;5030997;28;20061;-63
2022/03/20 01:35:52;;;;;;;13.85;8.32;;;;;;;8.46;44.93;103095.47;5030354;28;20021;-64
2022/03/20 01:38:20;;;;;;;16.95;9.45;;;;;;;8.47;45.50;103098.03;5029036;28;20381;-63
2022/03/20 01:40:46;;;;;;;11.57;8.65;;;;;;;8.45;46.17;103083.53;5030943;28;20021;-64
2022/03/20 01:43:16;;;;;;;16.10;9.60;;;;;;;8.43;45.53;103079.22;5030861;28;20397;-64
2022/03/20 01:45:41;;;;;;;12.63;10.15;;;;;;;8.45;44.83;103077.13;5023777;28;20037;-64
2022/03/20 01:48:07;;;;;;;15.10;10.07;;;;;;;8.40;45.64;103074.91;5030115;28;20075;-64
2022/03/20 01:50:32;;;;;;;18.00;10.98;;;;;;;8.36;45.20;103081.81;5028823;28;20036;-64
2022/03/20 01:52:59;;;;;;;14.85;10.57;;;;;;;8.28;44.82;103066.13;5030032;28;20376;-64
2022/03/20 01:55:25;;;;;;;18.08;11.38;;;;;;;8.24;45.65;103062.00;5029789;28;20129;-63
2022/03/20 01:57:51;;;;;;;18.60;12.20;;;;;;;8.00;46.23;103057.50;5029778;28;20116;-63
2022/03/20 02:00:19;;;;;;;20.25;12.50;;;;;;;8.00;45.78;103063.03;5029482;28;20041;-64
2022/03/20 02:02:45;;;;;;;18.65;12.73;;;;;;;8.03;46.19;103057.16;5028291;28;20065;-64
2022/03/20 02:05:11;;;;;;;18.88;12.95;;;;;;;8.02;45.29;103060.13;5029275;28;20068;-64
2022/03/20 02:07:38;;;;;;;22.83;14.40;;;;;;;7.99;46.15;103050.25;5024455;28;20030;-64
2022/03/20 02:10:04;;;;;;;19.35;14.18;;;;;;;7.94;45.71;103049.06;5025945;28;20108;-64
2022/03/20 02:12:30;;;;;;;19.58;14.95;;;;;;;7.91;45.81;103039.25;5029678;28;20369;-63
2022/03/20 02:15:01;;;;;;;20.42;15.55;;;;;;;7.84;46.24;103036.34;5029415;28;20025;-64
2022/03/20 02:17:30;;;;;;;25.42;15.98;;;;;;;7.86;45.40;103025.97;5030470;28;20079;-64
2022/03/20 02:20:03;;;;;;;21.30;15.30;;;;;;;7.85;46.01;103037.19;5029306;28;20033;-64
2022/03/20 02:22:29;;;;;;;20.98;15.52;;;;;;;7.89;46.17;103030.25;5029817;28;20037;-64
2022/03/20 02:24:54;;;;;;;22.98;16.35;;;;;;;7.87;45.24;103026.84;5029803;28;20021;-64
2022/03/20 02:27:27;;;;;;;22.30;17.30;;;;;;;7.87;45.43;103019.41;5032093;28;20373;-64
2022/03/20 02:29:59;;;;;;;;;;;;;;;8.09;44.93;103023.22;5035269;28;20469;-64
2022/03/20 02:32:29;;;;;;;24.08;17.33;;;;;;;7.91;45.76;103013.50;5033815;28;19917;-64
2022/03/20 02:34:58;;;;;;;23.85;17.38;;;;;;;7.84;45.63;103019.75;5032587;28;20033;-64
2022/03/20 02:37:24;;;;;;;22.23;16.95;;;;;;;7.82;44.81;103019.09;5033024;28;20040;-63
2022/03/20 02:39:54;;;;;;;25.95;18.05;;;;;;;7.85;44.97;103010.41;5030650;28;20030;-63
2022/03/20 02:42:21;;;;;;;25.45;18.42;;;;;;;7.75;45.54;103008.94;5019279;28;20069;-63
2022/03/20 02:45:00;;;;;;;25.17;18.38;;;;;;;7.72;45.24;103009.31;5033373;28;20029;-63
2022/03/20 02:47:30;;;;;;;25.95;17.88;;;;;;;7.70;45.12;103003.06;5034199;28;20033;-63
2022/03/20 02:50:04;;;;;;;24.65;18.80;;;;;;;7.66;45.09;102993.44;5033355;28;20351;-63
2022/03/20 02:52:46;;;;;;;29.85;19.77;;;;;;;7.62;45.89;102990.16;5030084;28;20033;-63
2022/03/20 02:55:14;;;;;;;24.80;19.05;;;;;;;7.58;45.48;102994.34;5030948;28;20084;-66
2022/03/20 02:57:39;;;;;;;25.10;18.85;;;;;;;7.56;45.71;102989.00;5033187;28;20029;-64
2022/03/20 03:00:06;;;;;;;25.23;19.23;;;;;;;7.54;45.28;102982.78;5033763;28;20064;-63
2022/03/20 03:02:43;;;;;;;26.05;20.02;;;;;;;7.52;45.17;102984.03;5032035;28;20052;-63
2022/03/20 03:05:10;;;;;;;27.10;19.65;;;;;;;7.54;45.46;102985.53;5033258;28;20037;-63
2022/03/20 03:10:55;;;;;;;27.00;20.98;;;;;;;7.52;45.73;102982.13;5033793;28;20033;-64
2022/03/20 03:13:07;;;;;;;26.92;19.58;;;;;;;7.47;45.24;102975.41;5032007;28;20035;-63
2022/03/20 03:15:32;;;;;;;27.58;19.92;;;;;;;7.48;45.48;102968.84;5032069;28;20037;-63
2022/03/20 03:17:58;;;;;;;29.45;20.23;;;;;;;7.43;45.47;102966.63;5026805;28;20041;-63
2022/03/20 03:20:23;;;;;;;28.42;19.88;;;;;;;7.32;45.90;102962.34;5028408;28;20056;-64
2022/03/20 03:22:49;;;;;;;31.17;20.95;;;;;;;7.36;45.37;102962.84;5031847;28;20041;-63
2022/03/20 03:25:15;;;;;;;32.22;21.40;;;;;;;7.40;45.46;102961.47;5032738;28;20393;-63
2022/03/20 03:27:40;;;;;;;29.92;21.67;;;;;;;7.36;45.91;102954.56;5032185;28;20523;-63
2022/03/20 03:30:05;;;;;;;30.13;21.65;;;;;;;7.33;45.59;102952.16;5029257;28;20057;-63
2022/03/20 03:32:31;;;;;;;28.20;21.98;;;;;;;7.30;46.09;102938.72;5030775;28;20041;-63
2022/03/20 03:37:40;;;;;;;28.98;22.48;;;;;;;7.34;45.31;102940.91;5032562;28;20080;-63
2022/03/20 03:40:07;;;;;;;32.58;23.35;;;;;;;7.34;45.76;102937.31;5027648;28;20124;-63
2022/03/20 03:42:34;;;;;;;34.58;24.40;;;;;;;7.32;45.87;102931.97;5028637;28;20037;-63
2022/03/20 03:45:00;;;;;;;31.80;22.60;;;;;;;7.33;45.83;102928.16;5032668;28;20044;-64
2022/03/20 03:47:26;;;;;;;28.80;22.38;;;;;;;7.32;45.84;102920.06;5032219;28;20056;-63
2022/03/20 03:49:51;;;;;;;32.10;23.38;;;;;;;7.33;46.29;102907.97;5032918;28;20072;-63
2022/03/20 03:52:17;;;;;;;32.28;22.80;;;;;;;7.37;45.71;102909.31;5030587;28;20523;-64
2022/03/20 03:54:42;;;;;;;34.45;21.67;;;;;;;7.37;45.46;102909.31;5032173;28;20037;-64
2022/03/20 03:57:11;;;;;;;33.70;22.52;;;;;;;7.38;46.03;102909.13;5029489;28;20021;-63
2022/03/20 03:59:36;;;;;;;31.63;23.20;;;;;;;7.24;45.81;102898.88;5020976;28;20042;-62
2022/03/20 04:02:02;;;;;;;29.27;23.00;;;;;;;7.22;46.27;102903.69;5029588;28;20060;-63
2022/03/20 04:04:27;;;;;;;29.67;22.35;;;;;;;7.21;45.98;102906.66;5032718;28;20036;-63
2022/03/20 04:06:54;;;;;;;31.08;23.52;;;;;;;7.25;45.69;102902.50;5031107;28;20036;-62
2022/03/20 04:09:19;;;;;;;29.02;22.10;;;;;;;7.19;46.37;102897.66;5032639;28;20088;-63
2022/03/20 04:11:44;;;;;;;32.80;23.30;;;;;;;7.23;46.14;102894.41;5032221;28;20072;-64
2022/03/20 04:14:10;;;;;;;29.63;22.17;;;;;;;7.30;45.71;102886.22;5016507;28;20033;-64
2022/03/20 04:16:35;;;;;;;30.10;21.95;;;;;;;7.22;46.14;102886.28;5031849;28;20029;-63
2022/03/20 04:19:00;;;;;;;29.65;23.13;;;;;;;7.25;46.20;102878.47;5032168;28;20028;-63
2022/03/20 04:21:26;;;;;;;29.48;22.42;;;;;;;7.22;45.84;102876.06;5031114;28;20033;-63
2022/03/20 04:23:51;;;;;;;32.20;23.27;;;;;;;7.23;46.02;102871.41;5025914;28;20042;-63
2022/03/20 04:26:18;;;;;;;29.88;22.77;;;;;;;7.24;45.96;102853.81;5024945;28;20045;-63
2022/03/20 04:28:44;;;;;;;30.35;22.90;;;;;;;7.21;46.65;102856.94;5031417;28;20439;-63
2022/03/20 04:31:16;;;;;;;32.83;23.80;;;;;;;7.16;46.35;102851.09;5024965;28;20029;-63
2022/03/20 04:33:53;;;;;;;32.58;23.20;;;;;;;7.17;46.25;102848.16;5020539;28;20041;-63
2022/03/20 04:36:30;;;;;;;33.03;24.35;;;;;;;7.06;46.57;102838.38;5025617;28;20517;-63
2022/03/20 04:38:56;;;;;;;32.47;23.52;;;;;;;7.01;46.61;102845.50;5030259;28;20026;-63
2022/03/20 04:41:22;;;;;;;31.50;24.63;;;;;;;6.98;47.00;102834.81;5011287;28;20041;-64
2022/03/20 04:43:49;;;;;;;34.15;24.15;;;;;;;6.96;47.10;102847.94;5028219;28;20032;-63
2022/03/20 04:46:19;;;;;;;33.20;24.23;;;;;;;6.93;46.92;102846.38;5028695;28;20033;-63
2022/03/20 04:59:40;;;;;;;33.33;24.42;;;;;;;6.83;46.44;102826.41;5030833;28;20060;-63
2022/03/20 05:02:05;;;;;;;34.10;23.58;;;;;;;6.81;46.84;102817.47;5030230;28;20025;-63
2022/03/20 05:04:30;;;;;;;33.75;24.25;;;;;;;6.78;46.67;102818.69;5030156;28;20041;-63
2022/03/20 05:06:56;;;;;;;31.17;23.92;;;;;;;6.78;46.84;102815.06;5032012;28;20033;-63
2022/03/20 05:14:50;;;;;;;32.83;23.65;;;;;;;6.74;46.85;102811.81;5030544;28;20047;-62
2022/03/20 05:17:15;;;;;;;33.55;24.65;;;;;;;6.75;46.60;102805.22;5027817;28;20148;-63
2022/03/20 05:19:41;;;;;;;33.97;24.20;;;;;;;6.67;47.23;102805.28;5030198;28;20037;-63
2022/03/20 05:22:11;;;;;;;32.75;23.40;;;;;;;6.72;46.94;102801.97;5031284;28;20017;-63
2022/03/20 05:24:38;;;;;;;35.35;24.38;;;;;;;6.71;46.86;102805.78;5027769;28;20060;-62
2022/03/20 05:27:04;;;;;;;33.65;24.65;;;;;;;6.61;46.77;102800.50;5030809;28;20044;-63
2022/03/20 05:29:31;;;;;;;36.72;24.88;;;;;;;6.55;46.91;102793.78;5027876;28;20477;-62
2022/03/20 05:31:56;;;;;;;31.90;24.25;;;;;;;6.54;47.13;102799.47;5027667;28;20132;-63
2022/03/20 05:34:23;;;;;;;31.92;23.42;;;;;;;6.51;47.36;102794.31;5030113;28;20156;-63
2022/03/20 05:36:49;;;;;;;32.10;22.63;;;;;;;6.51;47.04;102795.16;5029764;28;20079;-63
2022/03/20 05:39:15;;;;;;;32.92;24.15;;;;;;;6.52;47.03;102794.13;5030506;28;20029;-62
2022/03/20 05:41:51;;;;;;;35.35;24.17;;;;;;;6.52;47.07;102790.50;5016289;28;20151;-63
2022/03/20 05:44:18;;;;;;;31.17;23.63;;;;;;;6.55;46.76;102784.63;5029478;28;20103;-63
2022/03/20 05:46:46;;;;;;;34.03;23.60;;;;;;;6.48;46.98;102773.44;5021647;28;20438;-62
2022/03/20 05:49:11;;;;;;;32.38;24.58;;;;;;;6.42;47.62;102768.66;5023863;28;20041;-62
2022/03/20 05:51:40;;;;;;;28.08;23.02;;;;;;;6.46;47.23;102770.03;5030230;28;20029;-63
2022/03/20 05:54:06;;;;;;;33.05;22.50;;;;;;;6.50;47.11;102768.63;5027682;28;20103;-63
2022/03/20 05:59:16;;;;;;;34.95;24.42;;;;;;;6.46;46.68;102780.22;5022856;28;20056;-63
2022/03/20 06:01:42;;;;;;;33.03;24.00;;;;;;;6.43;46.62;102770.38;5027051;28;20062;-63
2022/03/20 06:04:08;;;;;;;31.55;23.67;;;;;;;6.44;46.53;102768.47;5029090;28;20525;-63
2022/03/20 06:06:34;;;;;;;30.77;23.30;;;;;;;6.44;46.57;102766.56;5030192;28;20723;-63
2022/03/20 06:08:59;;;;;;;30.75;23.17;;;;;;;6.45;46.58;102771.06;5030309;28;20030;-63
2022/03/20 06:11:24;;;;;;;32.35;24.52;;;;;;;6.42;46.46;102762.28;5030401;28;20075;-63
2022/03/20 06:13:49;;;;;;;33.22;23.88;;;;;;;6.43;46.08;102762.09;5011271;28;20022;-63
2022/03/20 06:16:15;;;;;;;31.77;23.45;;;;;;;6.49;46.21;102755.88;5030375;28;20037;-63
2022/03/20 06:18:42;;;;;;;32.13;24.17;;;;;;;6.38;45.82;102756.28;5029401;28;20503;-63
2022/03/20 06:21:09;;;;;;;34.75;23.40;;;;;;;6.37;46.06;102757.31;5030853;28;20080;-63
2022/03/20 06:23:34;;;;;;;34.58;22.83;;;;;;;6.43;45.68;102759.34;5021827;28;20068;-63
2022/03/20 06:26:06;;;;;;;31.17;22.33;;;;;;;6.34;45.17;102760.44;5030760;28;20044;-63
2022/03/20 06:28:32;;;;;;;33.63;23.47;;;;;;;6.38;45.57;102761.78;5029802;28;20124;-63
2022/03/20 06:30:59;;;;;;;32.30;23.02;;;;;;;6.35;45.27;102764.91;5029697;28;20295;-63
2022/03/20 06:33:27;;;;;;;34.60;23.58;;;;;;;6.39;45.61;102769.03;5029872;28;20041;-63
2022/03/20 06:35:53;;;;;;;31.40;23.23;;;;;;;6.32;45.33;102774.38;5029420;28;20032;-63
2022/03/20 06:38:20;;;;;;;28.77;21.92;;;;;;;6.38;45.30;102764.56;5030969;28;20041;-63
2022/03/20 06:40:45;;;;;;;32.35;23.33;;;;;;;6.32;45.18;102762.50;5030300;28;20029;-64
2022/03/20 06:43:10;;;;;;;34.42;22.58;;;;;;;6.33;44.81;102756.81;5029008;28;20060;-63
2022/03/20 06:45:36;;;;;;;30.80;22.75;;;;;;;6.31;44.60;102749.75;5030411;28;20083;-63
2022/03/20 06:48:02;;;;;;;30.05;21.55;;;;;;;6.35;45.11;102742.84;5026599;28;20033;-62
2022/03/20 06:50:28;;;;;;;32.25;22.92;;;;;;;6.38;44.48;102746.09;5030999;28;20481;-63
2022/03/20 06:52:54;;;;;;;29.08;21.60;;;;;;;6.39;44.84;102747.81;5030123;28;20724;-63
2022/03/20 06:55:19;;;;;;;33.05;23.23;;;;;;;6.33;44.67;102742.16;5027512;28;20068;-63
2022/03/20 06:57:46;;;;;;;31.58;22.38;;;;;;;6.34;44.52;102733.72;5017205;28;20034;-63
2022/03/20 07:00:14;;;;;;;33.60;22.98;;;;;;;6.37;44.85;102732.50;5028723;28;20124;-63
2022/03/20 07:02:39;;;;;;;32.03;22.05;;;;;;;6.31;44.30;102730.44;5027700;28;20033;-63
2022/03/20 07:05:05;;;;;;;27.65;21.67;;;;;;;6.30;44.71;102728.72;5029491;28;20026;-63
2022/03/20 07:07:36;;;;;;;30.17;21.73;;;;;;;6.31;45.05;102731.28;5029366;28;20075;-63
2022/03/20 07:10:03;;;;;;;28.90;22.23;;;;;;;6.33;44.69;102729.25;5033208;28;20381;-63
2022/03/20 07:12:28;;;;;;;29.45;22.33;;;;;;;6.33;44.81;102717.34;5032460;28;20041;-63
2022/03/20 07:14:59;;;;;;;32.67;22.65;;;;;;;6.33;44.36;102720.97;5019064;28;20028;-62
2022/03/20 07:17:25;;;;;;;32.90;23.48;;;;;;;6.28;44.36;102715.09;5027312;28;20045;-63
2022/03/20 07:19:51;;;;;;;31.25;21.80;;;;;;;6.32;44.56;102710.09;5033448;28;20030;-63
2022/03/20 07:22:16;;;;;;;31.35;21.98;;;;;;;6.33;44.26;102698.03;5032615;28;20095;-63
2022/03/20 07:24:43;;;;;;;31.90;22.13;;;;;;;6.36;44.23;102692.13;5032737;28;20029;-62
2022/03/20 07:29:54;;;;;;;30.05;21.60;;;;;;;6.43;43.57;102684.88;5032997;28;20047;-63
2022/03/20 07:32:19;;;;;;;30.20;21.40;;;;;;;6.38;43.25;102684.56;5032165;28;20037;-63
2022/03/20 07:34:45;;;;;;;34.30;22.35;;;;;;;6.36;43.46;102678.34;5024661;28;20048;-63
2022/03/20 07:37:15;;;;;;;29.88;21.90;;;;;;;6.29;43.33;102680.13;5031767;28;20036;-63
2022/03/20 07:39:43;;;;;;;28.92;21.92;;;;;;;6.24;42.84;102682.56;5033492;28;20041;-63
2022/03/20 07:42:08;;;;;;;27.95;21.85;;;;;;;6.25;43.34;102687.91;5032758;28;20040;-64
2022/03/20 07:44:36;;;;;;;33.25;21.67;;;;;;;6.31;42.82;102692.69;5031653;28;20025;-63
2022/03/20 07:47:02;;;;;;;28.17;21.35;;;;;;;6.31;42.71;102695.44;5033256;28;20046;-63
2022/03/20 07:49:28;;;;;;;29.70;21.35;;;;;;;6.32;42.88;102688.03;5017423;28;20489;-63
2022/03/20 07:51:55;;;;;;;30.10;21.73;;;;;;;6.41;42.82;102694.38;5017265;28;20037;-63
2022/03/20 07:54:26;;;;;;;29.05;21.60;;;;;;;6.42;42.22;102690.59;5032180;28;20029;-63
2022/03/20 07:56:54;;;;;;;32.15;21.30;;;;;;;6.47;41.69;102680.72;5032187;28;20029;-64
2022/03/20 07:59:20;;;;;;;29.48;21.02;;;;;;;6.50;42.29;102683.09;5031902;28;20037;-63
2022/03/20 08:01:46;;;;;;;30.10;21.52;;;;;;;6.53;41.55;102688.28;5031150;28;20049;-63
2022/03/20 08:04:11;;;;;;;29.58;21.27;;;;;;;6.55;41.87;102679.81;5031999;28;20120;-63
2022/03/20 08:06:37;;;;;;;31.42;21.60;;;;;;;6.57;41.41;102666.69;5025981;28;20033;-64
2022/03/20 08:09:02;;;;;;;26.48;20.70;;;;;;;6.56;42.01;102682.41;5031483;28;20911;-63
2022/03/20 08:11:29;;;;;;;27.65;20.35;;;;;;;6.57;41.49;102678.59;5031780;28;20120;-64
2022/03/20 08:13:54;;;;;;;33.42;21.65;;;;;;;6.60;42.07;102667.19;5032357;28;20029;-63
2022/03/20 08:16:22;;;;;;;31.67;21.60;;;;;;;6.62;41.38;102673.38;5029305;28;20116;-64
2022/03/20 08:18:48;;;;;;;26.88;21.52;;;;;;;6.64;41.89;102673.19;5030363;28;20038;-63
2022/03/20 08:21:16;;;;;;;29.25;21.02;;;;;;;6.66;41.80;102679.38;5028695;28;20756;-63
2022/03/20 08:23:42;;;;;;;27.77;20.50;;;;;;;6.66;41.23;102667.50;5031141;28;20063;-63
2022/03/20 08:26:08;;;;;;;28.38;21.25;;;;;;;6.66;40.91;102670.25;5029528;28;20117;-62
2022/03/20 08:28:47;;;;;;;30.35;22.20;;;;;;;6.69;41.23;102665.22;5032123;28;20029;-64
2022/03/20 08:31:14;;;;;;;31.05;21.40;;;;;;;6.76;41.23;102666.22;5029029;28;20029;-63
2022/03/20 08:33:45;;;;;;;30.20;21.55;;;;;;;6.74;41.33;102659.16;5028920;28;20034;-63
2022/03/20 08:36:13;;;;;;;27.45;20.52;;;;;;;6.79;40.63;102659.47;5031673;28;20365;-63
2022/03/20 08:38:39;;;;;;;30.98;21.63;;;;;;;6.80;40.95;102650.16;5029453;28;20492;-63
2022/03/20 08:41:05;;;;;;;28.05;21.25;;;;;;;6.87;41.30;102659.41;5021843;28;20036;-63
2022/03/20 08:43:30;;;;;;;28.50;20.48;;;;;;;6.88;41.11;102652.84;5022507;28;20067;-64
2022/03/20 08:45:55;;;;;;;27.83;21.42;;;;;;;6.87;40.62;102656.63;5029035;28;20018;-64
2022/03/20 08:48:21;;;;;;;29.50;21.48;;;;;;;6.84;41.34;102655.13;5023797;28;20148;-64
2022/03/20 08:50:49;;;;;;;28.85;21.20;;;;;;;6.88;40.73;102658.38;5024373;28;20032;-64
2022/03/20 08:53:18;;;;;;;27.95;21.65;;;;;;;6.91;41.01;102657.97;5019115;28;20013;-65
2022/03/20 08:55:48;;;;;;;30.48;21.63;;;;;;;6.93;40.99;102653.16;5031000;28;20368;-64
2022/03/20 08:58:13;;;;;;;29.73;21.10;;;;;;;6.97;40.61;102659.16;5033144;28;20026;-64
2022/03/20 09:00:40;;;;;;;26.92;20.75;;;;;;;6.98;41.18;102658.09;5029233;28;20041;-63
2022/03/20 09:03:06;;;;;;;32.45;21.58;;;;;;;6.98;40.91;102661.72;5031245;28;20401;-63
2022/03/20 09:05:32;;;;;;;28.75;22.15;;;;;;;7.01;40.96;102655.84;5026305;28;20488;-63
2022/03/20 09:07:58;;;;;;;37.97;22.88;;;;;;;6.96;41.32;102657.44;5023590;28;20036;-63
2022/03/20 09:10:27;;;;;;;27.50;19.63;;;;;;;6.98;41.04;102650.69;5021279;28;20025;-64
2022/03/20 09:15:41;;;;;;;30.80;21.33;;;;;;;7.05;41.55;102637.00;5018435;28;20040;-64
2022/03/20 09:20:50;;;;;;;35.05;22.08;;;;;;;7.26;40.78;102615.03;5017263;28;20048;-65
2022/03/20 09:23:16;;;;;;;32.30;21.60;;;;;;;7.40;40.80;102626.31;5027500;28;20029;-66
2022/03/20 09:25:41;;;;;;;26.63;20.63;;;;;;;7.60;40.61;102622.78;5030091;28;20484;-65
2022/03/20 09:28:08;;;;;;;28.60;21.30;;;;;;;7.77;40.42;102615.16;5030552;28;20064;-64
2022/03/20 09:30:35;;;;;;;34.67;22.52;;;;;;;7.98;39.83;102611.63;5019092;28;20029;-62
2022/03/20 09:33:05;;;;;;;31.85;21.92;;;;;;;8.17;39.02;102599.06;5025914;28;20125;-63
2022/03/20 09:35:31;;;;;;;32.25;23.05;;;;;;;8.22;38.93;102601.28;5025401;28;20033;-62
2022/03/20 09:37:56;;;;;;;32.33;23.38;;;;;;;8.25;38.47;102611.94;5023286;28;20037;-61
2022/03/20 09:40:24;;;;;;;31.08;22.20;;;;;;;8.20;38.83;102598.69;5018077;28;20122;-62
2022/03/20 09:42:50;;;;;;;32.33;22.60;;;;;;;8.14;39.27;102593.09;5027334;28;20025;-62
2022/03/20 09:45:17;;;;;;;34.10;23.23;;;;;;;8.14;39.61;102577.34;5029386;28;20125;-62
2022/03/20 09:47:43;;;;;;;33.10;23.13;;;;;;;8.17;38.64;102578.84;5026892;28;20038;-62
2022/03/20 09:50:10;;;;;;;31.98;23.80;;;;;;;8.18;38.35;102584.22;5031437;28;20044;-62
2022/03/20 09:52:37;;;;;;;35.08;23.35;;;;;;;8.15;38.61;102583.75;5027309;28;20481;-62
2022/03/20 09:55:13;;;;;;;33.70;24.17;;;;;;;8.10;38.92;102573.28;5026008;28;20026;-63
2022/03/20 09:57:57;;;;;;;31.35;23.73;;;;;;;8.08;40.11;102581.75;5017770;28;20029;-62
2022/03/20 10:00:24;;;;;;;33.00;23.48;;;;;;;8.03;39.22;102589.78;5020402;28;20057;-61
2022/03/20 10:02:49;;;;;;;30.35;22.60;;;;;;;8.05;39.80;102592.34;5022194;28;20104;-63
2022/03/20 10:05:23;;;;;;;35.28;23.55;;;;;;;8.03;39.69;102600.84;5015700;28;20049;-66
2022/03/20 10:07:51;;;;;;;33.53;23.48;;;;;;;8.04;39.59;102585.09;5024552;28;20025;-63
2022/03/20 10:10:25;;;;;;;34.90;23.70;;;;;;;8.00;40.15;102584.63;5020279;28;20029;-64
2022/03/20 10:12:56;;;;;;;31.45;23.52;;;;;;;8.01;40.92;102588.25;5023033;28;20108;-64
2022/03/20 10:15:31;;;;;;;34.47;24.30;;;;;;;8.06;40.08;102591.31;5021180;28;20033;-64
2022/03/20 10:18:24;;;;;;;37.88;27.25;;;;;;;8.08;40.33;102591.94;5018607;28;20033;-63
2022/03/20 10:20:52;;;;;;;34.42;24.38;;;;;;;8.04;40.45;102577.66;5017248;28;20025;-63
2022/03/20 10:23:36;;;;;;;35.85;25.88;;;;;;;8.10;40.72;102578.81;5017437;28;20034;-65
2022/03/20 10:26:06;;;;;;;44.28;28.20;;;;;;;8.05;40.71;102582.13;5028274;28;20393;-64
2022/03/20 10:28:41;;;;;;;38.45;27.77;;;;;;;8.07;40.50;102591.09;5022837;28;20123;-63
2022/03/20 10:31:18;;;;;;;41.13;29.13;;;;;;;8.08;40.92;102578.13;5020498;28;20101;-64
2022/03/20 10:33:46;;;;;;;44.53;29.90;;;;;;;8.09;40.76;102586.22;5010393;28;20612;-61
2022/03/20 10:36:20;;;;;;;37.72;28.90;;;;;;;8.01;42.65;102572.50;5018436;28;20113;-64
2022/03/20 10:38:48;;;;;;;43.97;28.60;;;;;;;7.99;45.00;102585.69;5017770;28;20025;-64
2022/03/20 10:41:28;;;;;;;39.92;30.13;;;;;;;7.87;45.60;102587.22;5020105;28;20071;-63
2022/03/20 10:43:55;;;;;;;45.35;30.15;;;;;;;7.88;46.31;102597.22;5019332;28;20045;-65
2022/03/20 10:46:27;;;;;;;38.10;29.23;;;;;;;7.92;47.23;102593.03;5023341;28;20033;-65
2022/03/20 10:48:56;;;;;;;41.10;29.00;;;;;;;7.98;46.99;102589.50;5024562;28;20017;-65
2022/03/20 10:51:41;;;;;;;35.72;28.55;;;;;;;8.02;46.57;102596.38;5023887;28;20033;-64
2022/03/20 10:54:11;;;;;;;41.38;29.85;;;;;;;8.04;46.62;102594.25;5022508;28;20112;-65
2022/03/20 10:56:38;;;;;;;38.70;29.13;;;;;;;8.05;47.42;102600.63;5018477;28;20018;-63
2022/03/20 10:59:14;;;;;;;42.22;31.10;;;;;;;8.02;47.71;102606.56;5024777;28;20041;-64
2022/03/20 11:01:41;;;;;;;38.60;29.52;;;;;;;8.00;48.23;102601.22;5026548;28;20030;-64
2022/03/20 11:04:08;;;;;;;41.28;30.60;;;;;;;7.98;49.09;102602.47;5018709;28;20030;-65
2022/03/20 11:06:34;;;;;;;43.03;31.67;;;;;;;7.92;50.20;102614.28;5019845;28;20033;-65
2022/03/20 11:09:02;;;;;;;41.15;30.75;;;;;;;7.84;49.83;102612.50;5029288;28;20056;-64
2022/03/20 11:11:29;;;;;;;42.53;31.27;;;;;;;7.78;50.62;102614.13;5028681;28;20021;-65
2022/03/20 11:13:58;;;;;;;41.60;30.73;;;;;;;7.72;50.66;102608.50;5027879;28;20451;-63
2022/03/20 11:16:24;;;;;;;40.97;31.95;;;;;;;7.71;51.10;102615.09;5022794;28;20563;-65
2022/03/20 11:18:53;;;;;;;42.80;32.42;;;;;;;7.73;51.24;102610.22;5032609;28;20095;-65
2022/03/20 11:21:22;;;;;;;42.80;32.15;;;;;;;7.75;51.79;102619.19;5025204;28;20022;-63
2022/03/20 11:23:48;;;;;;;41.05;31.30;;;;;;;7.78;51.41;102621.53;5026262;28;20497;-64
2022/03/20 11:26:15;;;;;;;39.67;31.17;;;;;;;7.81;51.09;102612.88;5019416;28;20152;-65
2022/03/20 11:28:45;;;;;;;43.55;31.73;;;;;;;7.81;51.61;102607.34;5017740;28;20030;-65
2022/03/20 11:31:12;;;;;;;41.55;31.20;;;;;;;7.80;51.26;102605.63;5021407;28;20120;-63
2022/03/20 11:33:40;;;;;;;42.58;31.45;;;;;;;7.80;51.24;102606.50;5026395;28;20551;-65
2022/03/20 11:36:06;;;;;;;44.58;32.97;;;;;;;7.81;51.97;102601.81;5019803;28;20021;-64
2022/03/20 11:38:35;;;;;;;41.58;32.28;;;;;;;7.83;52.00;102610.78;5022305;28;20042;-63
2022/03/20 11:41:13;;;;;;;46.00;31.63;;;;;;;7.86;51.53;102596.59;5022418;28;20588;-63
2022/03/20 11:43:44;;;;;;;45.97;32.05;;;;;;;7.92;51.21;102604.09;5022323;28;20397;-65
2022/03/20 11:46:29;;;;;;;45.00;31.95;;;;;;;7.94;52.14;102610.31;5024863;28;20556;-64
2022/03/20 11:49:17;;;;;;;43.47;29.58;;;;;;;7.97;50.81;102612.66;5024557;28;20041;-64
2022/03/20 11:51:54;;;;;;;40.67;31.25;;;;;;;7.97;51.14;102609.03;5025686;28;20120;-64
2022/03/20 11:54:20;;;;;;;45.17;34.05;;;;;;;8.02;51.58;102609.34;5026712;28;20037;-64